createdAt,value
2018-02-17T12:00:17.689Z,6.10
2018-02-17T12:02:46.148Z,6.05
2018-02-17T12:05:14.467Z,5.52
2018-02-17T12:07:42.919Z,5.62
2018-02-17T12:10:11.427Z,5.90
2018-02-17T12:12:39.724Z,5.71
2018-02-17T12:15:08.100Z,5.90
2018-02-17T12:17:36.535Z,5.89
2018-02-17T12:20:05.038Z,6.02
2018-02-17T12:22:33.417Z,6.19
2018-02-17T12:25:01.748Z,6.21
2018-02-17T12:27:30.131Z,6.42
2018-02-17T12:29:58.431Z,6.35
2018-02-17T12:32:26.828Z,6.14
2018-02-17T12:34:55.119Z,5.79
2018-02-17T12:37:23.451Z,6.23
2018-02-17T12:39:51.950Z,6.11
2018-02-17T12:42:20.523Z,6.13
2018-02-17T12:44:48.878Z,5.80
2018-02-17T12:47:17.374Z,6.04
2018-02-17T12:49:45.691Z,6.35
2018-02-17T12:52:14.160Z,6.46
2018-02-17T12:54:42.477Z,6.40
2018-02-17T12:57:10.812Z,6.47
2018-02-17T12:59:39.139Z,6.35
2018-02-17T13:02:07.455Z,6.26
2018-02-17T13:04:35.794Z,6.33
2018-02-17T13:07:04.123Z,6.40
2018-02-17T13:09:32.419Z,6.18
2018-02-17T13:12:00.793Z,6.14
2018-02-17T13:14:29.076Z,6.04
2018-02-17T13:16:58.018Z,5.85
2018-02-17T13:19:26.648Z,5.58
2018-02-17T13:21:57.914Z,5.91
2018-02-17T13:24:26.248Z,5.86
2018-02-17T13:26:56.237Z,5.69
2018-02-17T13:29:25.157Z,5.75
2018-02-17T13:31:56.296Z,5.86
2018-02-17T13:34:24.710Z,5.92
2018-02-17T13:36:53.296Z,5.97
2018-02-17T13:39:21.860Z,5.87
2018-02-17T13:41:50.744Z,5.71
2018-02-17T13:44:19.624Z,5.97
2018-02-17T13:46:47.938Z,6.01
2018-02-17T13:49:16.586Z,6.07
2018-02-17T13:51:44.901Z,5.86
2018-02-17T13:54:13.681Z,5.60
2018-02-17T13:56:42.079Z,5.80
2018-02-17T13:59:10.423Z,5.86
2018-02-17T14:01:38.759Z,5.64
2018-02-17T14:04:07.131Z,5.75
2018-02-17T14:06:35.443Z,5.74
2018-02-17T14:09:03.803Z,5.77
2018-02-17T14:11:32.731Z,5.77
2018-02-17T14:14:03.063Z,5.87
2018-02-17T14:16:33.265Z,5.86
2018-02-17T14:19:01.861Z,5.81
2018-02-17T14:21:33.512Z,5.80
2018-02-17T14:24:02.170Z,5.75
2018-02-17T14:26:30.698Z,5.69
2018-02-17T14:28:59.016Z,5.50
2018-02-17T14:31:27.472Z,5.61
2018-02-17T14:33:56.087Z,5.53
2018-02-17T14:36:24.579Z,5.47
2018-02-17T14:38:53.261Z,5.55
2018-02-17T14:41:21.684Z,5.38
2018-02-17T14:43:51.374Z,5.50
2018-02-17T14:46:19.955Z,5.53
2018-02-17T14:48:48.391Z,5.59
2018-02-17T14:51:20.048Z,5.53
2018-02-17T14:53:48.376Z,5.62
2018-02-17T14:56:16.850Z,5.47
2018-02-17T14:58:45.588Z,5.56
2018-02-17T15:01:13.932Z,5.46
2018-02-17T15:03:42.245Z,5.54
2018-02-17T15:06:10.591Z,5.55
2018-02-17T15:08:39.160Z,5.39
2018-02-17T15:11:07.478Z,5.45
2018-02-17T15:13:35.731Z,5.18
2018-02-17T15:16:04.320Z,5.41
2018-02-17T15:18:32.628Z,5.36
2018-02-17T15:21:07.325Z,5.36
2018-02-17T15:23:36.404Z,5.26
2018-02-17T15:26:08.344Z,5.18
2018-02-17T15:28:38.895Z,5.26
2018-02-17T15:31:07.308Z,5.29
2018-02-17T15:33:35.595Z,5.36
2018-02-17T15:36:04.047Z,5.28
2018-02-17T15:38:32.361Z,5.29
2018-02-17T15:41:03.642Z,5.22
2018-02-17T15:43:31.966Z,5.26
2018-02-17T15:46:00.914Z,5.19
2018-02-17T15:48:29.277Z,5.24
2018-02-17T15:50:57.945Z,5.24
2018-02-17T15:53:27.520Z,5.21
2018-02-17T15:55:56.369Z,5.21
2018-02-17T15:58:25.878Z,5.09
2018-02-17T16:00:55.096Z,4.97
2018-02-17T16:03:24.646Z,5.03
2018-02-17T16:05:53.371Z,5.17
2018-02-17T16:08:21.664Z,5.10
2018-02-17T16:10:50.123Z,5.13
2018-02-17T16:13:18.461Z,5.16
2018-02-17T16:15:47.100Z,5.03
2018-02-17T16:18:15.505Z,5.01
2018-02-17T16:20:44.444Z,5.03
2018-02-17T16:23:12.772Z,5.08
2018-02-17T16:25:41.075Z,5.00
2018-02-17T16:28:09.356Z,5.11
2018-02-17T16:30:37.859Z,5.05
2018-02-17T16:33:06.234Z,4.96
2018-02-17T16:35:37.687Z,5.00
2018-02-17T16:38:07.236Z,4.88
2018-02-17T16:40:35.549Z,4.92
2018-02-17T16:43:04.040Z,4.76
2018-02-17T16:45:32.660Z,4.93
2018-02-17T16:48:01.457Z,4.77
2018-02-17T16:50:29.780Z,4.77
2018-02-17T16:52:58.180Z,4.80
2018-02-17T16:55:26.500Z,4.73
2018-02-17T16:57:54.800Z,4.81
2018-02-17T17:00:23.143Z,4.87
2018-02-17T17:02:51.467Z,4.78
2018-02-17T17:05:19.959Z,4.69
2018-02-17T17:07:48.248Z,4.86
2018-02-17T17:10:16.599Z,4.72
2018-02-17T17:12:44.976Z,4.80
2018-02-17T17:15:13.539Z,4.77
2018-02-17T17:17:41.985Z,4.74
2018-02-17T17:20:10.457Z,4.73
2018-02-17T17:22:40.889Z,4.67
2018-02-17T17:25:09.366Z,4.63
2018-02-17T17:27:37.683Z,4.57
2018-02-17T17:30:06.024Z,4.61
2018-02-17T17:32:34.466Z,4.59
2018-02-17T17:35:03.154Z,4.58
2018-02-17T17:37:31.828Z,4.36
2018-02-17T17:40:00.116Z,4.60
2018-02-17T17:42:28.431Z,4.59
2018-02-17T17:44:56.808Z,4.58
2018-02-17T17:47:31.983Z,4.47
2018-02-17T17:50:00.267Z,4.32
2018-02-17T17:52:28.628Z,4.32
2018-02-17T17:54:57.139Z,4.62
2018-02-17T17:57:25.655Z,4.58
2018-02-17T17:59:53.927Z,4.44
2018-02-17T18:02:22.345Z,4.52
2018-02-17T18:04:50.863Z,4.48
2018-02-17T18:07:19.572Z,4.21
2018-02-17T18:09:47.994Z,4.35
2018-02-17T18:12:16.303Z,4.36
2018-02-17T18:14:44.661Z,4.44
2018-02-17T18:17:13.405Z,4.30
2018-02-17T18:19:41.695Z,4.34
2018-02-17T18:22:10.107Z,4.44
2018-02-17T18:24:38.682Z,4.52
2018-02-17T18:27:06.963Z,4.39
2018-02-17T18:29:35.348Z,4.26
2018-02-17T18:32:03.644Z,4.36
2018-02-17T18:34:32.112Z,4.38
2018-02-17T18:37:00.432Z,4.26
2018-02-17T18:39:29.188Z,4.18
2018-02-17T18:41:57.586Z,4.14
2018-02-17T18:44:26.179Z,4.11
2018-02-17T18:46:54.709Z,4.19
2018-02-17T18:49:23.073Z,4.02
2018-02-17T18:51:51.400Z,4.01
2018-02-17T18:54:19.703Z,4.22
2018-02-17T18:56:48.019Z,4.02
2018-02-17T18:59:16.486Z,4.20
2018-02-17T19:01:44.810Z,4.09
2018-02-17T19:04:13.131Z,4.14
2018-02-17T19:06:41.795Z,4.08
2018-02-17T19:09:10.116Z,4.12
2018-02-17T19:11:38.861Z,4.00
2018-02-17T19:14:07.358Z,4.06
2018-02-17T19:16:35.684Z,4.07
2018-02-17T19:19:03.971Z,4.02
2018-02-17T19:21:32.364Z,4.06
2018-02-17T19:24:01.030Z,4.10
2018-02-17T19:26:29.477Z,4.20
2018-02-17T19:28:57.872Z,4.07
2018-02-17T19:31:26.367Z,4.07
2018-02-17T19:33:54.646Z,4.07
2018-02-17T19:36:23.328Z,4.10
2018-02-17T19:38:51.788Z,4.25
2018-02-17T19:41:20.155Z,4.28
2018-02-17T19:43:48.551Z,4.23
2018-02-17T19:46:17.021Z,4.21
2018-02-17T19:48:45.311Z,4.13
2018-02-17T19:51:13.719Z,3.99
2018-02-17T19:53:42.122Z,4.10
2018-02-17T19:56:10.448Z,4.08
2018-02-17T19:58:38.756Z,4.08
2018-02-17T20:01:07.083Z,4.27
2018-02-17T20:03:35.487Z,4.12
2018-02-17T20:06:03.849Z,4.00
2018-02-17T20:08:32.183Z,4.07
2018-02-17T20:11:00.498Z,3.99
2018-02-17T20:13:28.980Z,3.78
2018-02-17T20:15:57.304Z,3.85
2018-02-17T20:18:25.738Z,3.93
2018-02-17T20:20:54.051Z,3.98
2018-02-17T20:23:22.352Z,3.86
2018-02-17T20:25:50.705Z,3.98
2018-02-17T20:28:18.984Z,4.12
2018-02-17T20:30:47.323Z,4.06
2018-02-17T20:33:15.663Z,4.09
2018-02-17T20:35:44.183Z,4.04
2018-02-17T20:38:13.041Z,4.16
2018-02-17T20:40:41.399Z,4.14
2018-02-17T20:43:09.752Z,4.16
2018-02-17T20:45:38.047Z,4.07
2018-02-17T20:48:06.524Z,3.98
2018-02-17T20:50:34.829Z,3.93
2018-02-17T20:53:03.212Z,4.00
2018-02-17T20:55:31.518Z,3.86
2018-02-17T20:57:59.876Z,3.81
2018-02-17T21:00:28.247Z,3.74
2018-02-17T21:02:56.612Z,3.77
2018-02-17T21:05:25.060Z,3.76
2018-02-17T21:07:53.531Z,3.87
2018-02-17T21:10:21.882Z,4.02
2018-02-17T21:12:50.463Z,3.91
2018-02-17T21:15:18.778Z,3.94
2018-02-17T21:17:47.067Z,3.82
2018-02-17T21:20:15.612Z,3.73
2018-02-17T21:22:43.902Z,3.94
2018-02-17T21:25:12.222Z,4.07
2018-02-17T21:27:40.667Z,4.03
2018-02-17T21:30:09.045Z,3.97
2018-02-17T21:32:37.442Z,4.03
2018-02-17T21:35:05.814Z,3.90
2018-02-17T21:37:34.105Z,3.90
2018-02-17T21:40:02.867Z,3.93
2018-02-17T21:42:31.231Z,4.01
2018-02-17T21:44:59.860Z,3.79
2018-02-17T21:47:28.332Z,3.92
2018-02-17T21:49:56.642Z,3.91
2018-02-17T21:52:25.015Z,3.96
2018-02-17T21:54:53.454Z,4.02
2018-02-17T21:57:21.780Z,3.92
2018-02-17T21:59:50.112Z,3.96
2018-02-17T22:02:18.501Z,3.80
2018-02-17T22:04:46.779Z,3.94
2018-02-17T22:07:15.272Z,3.92
2018-02-17T22:09:43.543Z,3.72
2018-02-17T22:12:11.987Z,3.72
2018-02-17T22:14:40.267Z,3.69
2018-02-17T22:17:08.684Z,3.64
2018-02-17T22:19:37.087Z,3.75
2018-02-17T22:22:05.399Z,3.67
2018-02-17T22:24:33.740Z,3.76
2018-02-17T22:27:02.071Z,3.87
2018-02-17T22:29:30.381Z,3.84
2018-02-17T22:31:58.844Z,3.70
2018-02-17T22:34:27.616Z,3.72
2018-02-17T22:36:56.203Z,3.72
2018-02-17T22:39:24.469Z,3.68
2018-02-17T22:41:53.119Z,3.87
2018-02-17T22:44:21.434Z,3.84
2018-02-17T22:46:49.834Z,3.68
2018-02-17T22:49:18.190Z,3.72
2018-02-17T22:51:46.559Z,3.76
2018-02-17T22:54:14.981Z,3.78
2018-02-17T22:56:43.303Z,3.87
2018-02-17T22:59:11.680Z,3.84
2018-02-17T23:01:40.068Z,3.69
2018-02-17T23:04:08.481Z,3.72
2018-02-17T23:06:36.789Z,3.81
2018-02-17T23:09:05.676Z,3.80
2018-02-17T23:11:36.433Z,3.80
2018-02-17T23:14:04.950Z,3.63
2018-02-17T23:16:39.180Z,3.62
2018-02-17T23:19:08.936Z,3.61
2018-02-17T23:21:37.324Z,3.64
2018-02-17T23:24:06.963Z,3.71
2018-02-17T23:26:36.359Z,3.76
2018-02-17T23:29:04.705Z,3.69
2018-02-17T23:31:33.211Z,3.58
2018-02-17T23:34:01.530Z,3.61
2018-02-17T23:36:29.862Z,3.68
2018-02-17T23:38:58.337Z,3.75
2018-02-17T23:41:26.733Z,3.55
2018-02-17T23:43:55.043Z,3.74
2018-02-17T23:46:30.115Z,3.65
2018-02-17T23:48:58.423Z,3.54
2018-02-17T23:51:26.801Z,3.54
2018-02-17T23:53:55.269Z,3.54
2018-02-17T23:56:23.697Z,3.58
2018-02-17T23:58:51.991Z,3.51
